Time;durP1;ratioP1;P1;durP2;ratioP2;P2;SDS_P1;SDS_P2;PMS_P1;PMS_P2;Temp;Humidity;BMP_temperature;BMP_pressure;BME280_temperature;BME280_humidity;BME280_pressure;Samples;Min_cycle;Max_cycle;Signal;HPM_P1;HPM_P2
2023/06/24 00:00:26;;;;;;;1.65;1.00;;;29.80;52.40;;;;;;10525323;28;20479;-33
2023/06/24 00:05:28;;;;;;;1.55;0.90;;;29.80;52.30;;;;;;10536356;28;20048;-31
2023/06/24 00:10:30;;;;;;;1.88;1.40;;;29.80;52.40;;;;;;10522494;28;20496;-32
2023/06/24 00:15:34;;;;;;;1.55;1.20;;;29.70;52.40;;;;;;10531864;28;20105;-38
2023/06/24 00:20:36;;;;;;;1.20;0.98;;;29.60;52.50;;;;;;10540679;28;20055;-31
2023/06/24 00:25:37;;;;;;;1.30;1.13;;;29.40;52.80;;;;;;10532344;28;20079;-38
2023/06/24 00:30:41;;;;;;;1.65;1.20;;;29.50;52.60;;;;;;10538589;28;20527;-31
2023/06/24 00:35:43;;;;;;;2.88;1.00;;;29.50;52.60;;;;;;10531422;28;20040;-32
2023/06/24 00:40:46;;;;;;;2.20;1.35;;;29.50;52.60;;;;;;10527872;28;20052;-31
2023/06/24 00:45:49;;;;;;;1.10;0.90;;;29.50;52.60;;;;;;10512910;28;20044;-33
2023/06/24 00:50:51;;;;;;;1.60;1.08;;;29.40;52.80;;;;;;10532912;28;20079;-33
2023/06/24 00:55:54;;;;;;;1.98;1.38;;;29.40;52.70;;;;;;10520754;28;20079;-34
2023/06/24 01:00:58;;;;;;;1.50;1.17;;;29.40;52.80;;;;;;10529900;28;20135;-31
2023/06/24 01:06:00;;;;;;;1.55;1.10;;;29.30;52.70;;;;;;10532033;28;20044;-31
2023/06/24 01:11:02;;;;;;;1.98;1.10;;;29.30;52.80;;;;;;10525866;28;20050;-31
2023/06/24 01:16:11;;;;;;;1.67;1.35;;;29.30;52.80;;;;;;10510072;28;20162;-30
2023/06/24 01:21:21;;;;;;;2.08;1.20;;;29.20;52.80;;;;;;10535086;28;20115;-37
2023/06/24 01:26:52;;;;;;;1.80;1.10;;;29.10;53.00;;;;;;10526044;28;20096;-30
2023/06/24 01:32:00;;;;;;;1.85;1.05;;;29.10;53.00;;;;;;10510758;28;20445;-31
2023/06/24 01:37:09;;;;;;;2.88;1.23;;;29.10;53.00;;;;;;10538238;28;20135;-32
2023/06/24 01:42:15;;;;;;;1.42;1.15;;;29.00;53.00;;;;;;10530253;28;20117;-31
2023/06/24 01:47:24;;;;;;;1.75;1.10;;;29.00;53.00;;;;;;10522655;28;20044;-32
2023/06/24 01:52:28;;;;;;;1.20;1.00;;;29.00;53.00;;;;;;10528439;28;20135;-30
2023/06/24 01:57:33;;;;;;;1.98;1.20;;;29.00;53.10;;;;;;10521802;28;20076;-34
2023/06/24 02:02:37;;;;;;;2.05;1.50;;;28.90;53.10;;;;;;10520887;28;20067;-30
2023/06/24 02:07:41;;;;;;;2.30;1.17;;;28.80;53.30;;;;;;10531289;28;20068;-31
2023/06/24 02:12:44;;;;;;;1.40;1.27;;;28.80;53.20;;;;;;10526078;28;20079;-31
2023/06/24 02:17:50;;;;;;;1.45;1.13;;;28.80;53.20;;;;;;10531810;28;20075;-31
2023/06/24 02:22:52;;;;;;;5.10;1.20;;;28.70;53.30;;;;;;10530933;28;20122;-37
2023/06/24 02:27:55;;;;;;;3.45;1.35;;;28.70;53.10;;;;;;10532780;28;20126;-31
2023/06/24 02:32:59;;;;;;;3.83;1.45;;;28.70;53.30;;;;;;10539421;28;20496;-32
2023/06/24 02:38:00;;;;;;;3.00;1.15;;;28.60;53.40;;;;;;10533746;28;20158;-30
2023/06/24 02:43:02;;;;;;;2.15;1.40;;;28.60;53.40;;;;;;10525145;28;20520;-31
2023/06/24 02:48:07;;;;;;;1.77;1.05;;;28.60;53.40;;;;;;10531141;28;20122;-31
2023/06/24 02:53:09;;;;;;;3.50;1.45;;;28.50;53.40;;;;;;10530351;28;20459;-30
2023/06/24 03:15:31;;;;;;;2.05;1.60;;;28.20;53.50;;;;;;10505768;27;20140;-33
2023/06/24 03:20:38;;;;;;;4.05;1.33;;;28.20;53.90;;;;;;10509806;28;20051;-31
2023/06/24 03:25:40;;;;;;;1.70;1.40;;;28.30;53.70;;;;;;10526841;28;20043;-30
2023/06/24 03:30:43;;;;;;;2.40;1.20;;;28.30;53.80;;;;;;10521747;28;20076;-35
2023/06/24 03:35:45;;;;;;;1.88;1.40;;;28.20;53.90;;;;;;10518797;28;20055;-31
2023/06/24 03:40:47;;;;;;;2.15;1.60;;;28.20;53.90;;;;;;10517096;28;20041;-31
2023/06/24 03:45:50;;;;;;;2.03;1.30;;;28.20;53.90;;;;;;10522140;28;20457;-30
2023/06/24 03:50:52;;;;;;;2.58;1.83;;;28.20;53.90;;;;;;10518807;28;20127;-31
2023/06/24 03:55:54;;;;;;;2.10;1.40;;;28.10;54.00;;;;;;10520109;28;20543;-31
2023/06/24 04:01:00;;;;;;;2.20;1.40;;;28.10;54.00;;;;;;10516093;28;20086;-31
2023/06/24 04:06:02;;;;;;;1.70;1.30;;;28.10;54.00;;;;;;10522726;28;20641;-34
2023/06/24 04:11:04;;;;;;;2.10;1.48;;;28.10;54.10;;;;;;10516505;28;20048;-29
2023/06/24 04:16:07;;;;;;;3.30;1.45;;;28.00;54.10;;;;;;10518749;28;20131;-30
2023/06/24 04:21:09;;;;;;;2.65;1.67;;;28.00;54.10;;;;;;10518855;28;20040;-30
2023/06/24 04:26:11;;;;;;;1.75;1.65;;;28.00;54.10;;;;;;10496892;28;20098;-29
2023/06/24 04:31:14;;;;;;;1.55;1.20;;;28.00;54.10;;;;;;10486081;28;20825;-35
2023/06/24 04:36:16;;;;;;;2.22;1.50;;;28.00;54.20;;;;;;10487357;28;20044;-32
2023/06/24 04:41:19;;;;;;;2.13;1.60;;;27.80;54.30;;;;;;10487264;28;20048;-35
2023/06/24 04:46:22;;;;;;;3.83;1.70;;;27.90;54.20;;;;;;10485122;28;20044;-36
2023/06/24 04:51:24;;;;;;;1.75;1.48;;;28.00;54.30;;;;;;10489331;28;20132;-30
2023/06/24 04:56:26;;;;;;;2.70;1.73;;;27.90;54.30;;;;;;10482780;28;20059;-37
2023/06/24 05:01:29;;;;;;;2.88;1.60;;;28.00;54.30;;;;;;10488236;28;20396;-30
2023/06/24 05:06:31;;;;;;;2.83;1.92;;;27.90;54.30;;;;;;10490665;28;20072;-32
2023/06/24 05:11:33;;;;;;;2.53;1.88;;;27.80;54.40;;;;;;10491734;28;20084;-31
2023/06/24 05:16:36;;;;;;;4.13;1.52;;;27.90;54.30;;;;;;10488106;28;20096;-33
2023/06/24 05:21:38;;;;;;;2.05;1.70;;;27.80;54.50;;;;;;10483021;28;20127;-33
2023/06/24 05:26:40;;;;;;;5.07;1.85;;;27.80;54.50;;;;;;10484338;28;20087;-30
2023/06/24 05:31:43;;;;;;;4.22;2.42;;;27.80;54.60;;;;;;10485820;28;20067;-31
2023/06/24 05:36:45;;;;;;;2.38;1.45;;;27.20;55.60;;;;;;10482683;28;20533;-32
2023/06/24 05:41:48;;;;;;;2.00;1.50;;;27.70;54.60;;;;;;10482372;28;20628;-32
2023/06/24 05:46:51;;;;;;;5.65;2.22;;;27.80;54.70;;;;;;10487038;28;20409;-31
2023/06/24 05:51:53;;;;;;;4.45;1.77;;;27.80;54.80;;;;;;10481192;28;20151;-32
2023/06/24 05:56:55;;;;;;;5.70;2.22;;;28.00;54.40;;;;;;10491730;28;20140;-32
2023/06/24 06:01:59;;;;;;;7.65;2.35;;;27.90;54.60;;;;;;10478087;28;20045;-31
2023/06/24 06:07:00;;;;;;;5.35;2.17;;;27.90;54.60;;;;;;10482914;28;20045;-31
2023/06/24 06:12:02;;;;;;;4.32;2.40;;;27.70;55.10;;;;;;10483262;28;20057;-35
2023/06/24 06:17:06;;;;;;;2.85;1.90;;;27.00;57.10;;;;;;10475523;28;20133;-31
2023/06/24 06:22:08;;;;;;;4.50;2.03;;;27.80;55.20;;;;;;10482819;28;20049;-31
2023/06/24 06:27:11;;;;;;;3.55;2.58;;;27.60;55.60;;;;;;10484823;28;20040;-31
2023/06/24 06:32:14;;;;;;;3.13;2.17;;;27.80;55.50;;;;;;10483187;28;21418;-32
2023/06/24 06:37:16;;;;;;;3.78;1.95;;;27.90;55.20;;;;;;10481319;28;20076;-32
2023/06/24 06:42:18;;;;;;;9.68;3.00;;;27.90;55.40;;;;;;10474652;28;20131;-30
2023/06/24 06:47:21;;;;;;;5.75;2.22;;;27.30;57.30;;;;;;10483950;28;20057;-33
2023/06/24 06:52:22;;;;;;;9.63;3.63;;;27.20;57.50;;;;;;10483506;28;20076;-36
2023/06/24 06:57:25;;;;;;;8.48;3.42;;;27.30;57.10;;;;;;10494098;28;20051;-31
2023/06/24 07:02:29;;;;;;;8.13;3.03;;;26.70;59.60;;;;;;10469645;28;20134;-31
2023/06/24 07:07:32;;;;;;;5.55;2.60;;;27.00;60.00;;;;;;10479741;28;20137;-32
2023/06/24 07:12:34;;;;;;;4.85;2.38;;;27.10;57.60;;;;;;10475842;28;20049;-34
2023/06/24 07:17:37;;;;;;;4.07;2.35;;;27.30;57.60;;;;;;10475413;28;20049;-34
2023/06/24 07:22:39;;;;;;;5.13;2.15;;;27.40;57.20;;;;;;10484465;28;20113;-30
2023/06/24 07:27:41;;;;;;;7.50;3.28;;;27.40;58.00;;;;;;10475723;28;20068;-35
2023/06/24 07:32:44;;;;;;;5.75;2.95;;;27.00;58.70;;;;;;10476329;28;20056;-32
2023/06/24 07:37:46;;;;;;;3.63;2.10;;;27.20;58.40;;;;;;10479249;28;20159;-32
2023/06/24 07:42:48;;;;;;;3.45;2.10;;;27.50;57.90;;;;;;10484716;28;20178;-33
2023/06/24 07:47:51;;;;;;;6.55;2.30;;;27.50;58.20;;;;;;10485721;28;20122;-32
2023/06/24 07:52:53;;;;;;;10.20;2.97;;;27.00;59.20;;;;;;10481796;28;20083;-34
2023/06/24 07:57:55;;;;;;;3.90;2.40;;;27.00;59.80;;;;;;10483548;28;20045;-32
2023/06/24 08:02:59;;;;;;;5.28;2.85;;;27.50;58.80;;;;;;10494887;28;20053;-32
2023/06/24 08:08:01;;;;;;;5.50;3.17;;;27.40;58.40;;;;;;10490329;28;20132;-33
2023/06/24 08:13:02;;;;;;;5.85;3.03;;;27.40;59.30;;;;;;10489706;28;20064;-33
2023/06/24 08:18:06;;;;;;;5.80;3.83;;;26.70;61.50;;;;;;10496254;28;20119;-31
2023/06/24 08:23:09;;;;;;;4.13;2.38;;;26.50;61.90;;;;;;10483566;28;20281;-36
2023/06/24 08:28:11;;;;;;;7.47;2.92;;;27.40;58.90;;;;;;10492191;28;20048;-36
2023/06/24 08:33:14;;;;;;;7.75;2.80;;;27.70;58.30;;;;;;10483603;28;20165;-36
2023/06/24 08:38:16;;;;;;;6.43;2.97;;;27.50;58.90;;;;;;10491776;28;20378;-31
2023/06/24 08:43:18;;;;;;;5.93;2.13;;;27.90;57.90;;;;;;10498264;28;20049;-37
2023/06/24 08:48:22;;;;;;;7.88;2.85;;;27.40;59.10;;;;;;10487518;28;20045;-31
2023/06/24 08:53:26;;;;;;;7.63;3.25;;;27.80;57.90;;;;;;10491740;28;20088;-31
2023/06/24 08:58:28;;;;;;;2.30;1.90;;;27.20;59.40;;;;;;10487672;28;20147;-33
2023/06/24 09:03:31;;;;;;;5.78;3.38;;;27.30;60.20;;;;;;10490644;28;20052;-32
2023/06/24 09:08:35;;;;;;;6.53;3.50;;;26.80;61.00;;;;;;10486897;28;20500;-32
2023/06/24 09:13:37;;;;;;;10.70;4.35;;;27.20;59.50;;;;;;10504123;28;20052;-33
2023/06/24 09:18:42;;;;;;;3.63;2.75;;;26.10;63.30;;;;;;10490798;28;20477;-31
2023/06/24 09:23:47;;;;;;;4.75;2.35;;;27.20;60.20;;;;;;10482664;28;20076;-32
2023/06/24 09:28:50;;;;;;;5.00;3.30;;;27.50;59.30;;;;;;10486040;28;20428;-34
2023/06/24 09:33:58;;;;;;;3.88;2.85;;;27.20;59.70;;;;;;10483559;28;20181;-32
2023/06/24 09:39:07;;;;;;;4.78;2.90;;;27.70;58.50;;;;;;10487877;28;20084;-32
2023/06/24 09:44:11;;;;;;;6.63;3.05;;;27.60;58.70;;;;;;10488064;28;20521;-31
2023/06/24 09:49:14;;;;;;;5.40;2.65;;;27.60;58.40;;;;;;10476471;28;20507;-39
2023/06/24 09:54:18;;;;;;;13.88;5.32;;;27.90;58.20;;;;;;10482379;28;20052;-34
2023/06/24 09:59:21;;;;;;;10.38;5.18;;;24.90;70.60;;;;;;10477851;28;20044;-33
2023/06/24 10:04:25;;;;;;;8.93;5.53;;;24.50;73.90;;;;;;10484061;28;20050;-34
2023/06/24 10:09:27;;;;;;;10.63;5.43;;;23.80;79.20;;;;;;10482915;28;20053;-34
2023/06/24 10:14:29;;;;;;;12.18;5.88;;;24.10;77.10;;;;;;10487142;28;20096;-35
2023/06/24 10:19:38;;;;;;;6.65;3.53;;;23.60;79.30;;;;;;10486569;28;20044;-37
2023/06/24 10:24:44;;;;;;;3.75;2.78;;;26.40;65.70;;;;;;10487458;28;20044;-32
2023/06/24 10:29:47;;;;;;;9.95;4.82;;;26.30;66.10;;;;;;10479593;28;20052;-35
2023/06/24 10:34:56;;;;;;;3.15;2.30;;;26.70;63.60;;;;;;10484182;28;20112;-33
2023/06/24 10:39:59;;;;;;;7.78;4.22;;;26.70;64.70;;;;;;10476632;28;20045;-29
2023/06/24 10:45:03;;;;;;;13.07;4.53;;;26.10;67.30;;;;;;10486115;28;20044;-31
2023/06/24 10:50:07;;;;;;;8.93;3.58;;;26.60;64.60;;;;;;10483165;28;20233;-34
2023/06/24 10:55:10;;;;;;;5.18;2.20;;;26.70;64.40;;;;;;10481873;28;20492;-31
2023/06/24 11:00:13;;;;;;;10.68;3.88;;;27.20;63.50;;;;;;10492802;28;20137;-32
2023/06/24 11:05:17;;;;;;;14.48;6.93;;;27.20;62.80;;;;;;10485634;28;20602;-37
2023/06/24 11:10:18;;;;;;;5.57;2.88;;;26.10;69.20;;;;;;10490832;28;20041;-32
2023/06/24 11:15:20;;;;;;;7.65;2.70;;;26.60;67.10;;;;;;10492351;28;20166;-33
2023/06/24 11:20:24;;;;;;;8.77;5.65;;;27.80;61.50;;;;;;10482687;28;20064;-31
2023/06/24 11:25:25;;;;;;;7.63;4.65;;;27.10;62.60;;;;;;10479534;28;20139;-32
2023/06/24 11:30:28;;;;;;;12.63;7.65;;;26.70;66.60;;;;;;10484249;28;20397;-40
2023/06/24 11:35:35;;;;;;;6.78;4.93;;;26.60;65.30;;;;;;10480336;28;20671;-33
2023/06/24 11:40:36;;;;;;;6.03;3.58;;;27.00;65.80;;;;;;10496631;28;20032;-34
2023/06/24 11:45:38;;;;;;;7.63;4.40;;;27.60;62.50;;;;;;10480670;28;20054;-33
2023/06/24 11:50:42;;;;;;;6.75;4.68;;;27.70;62.90;;;;;;10490574;28;20715;-34
2023/06/24 11:55:43;;;;;;;7.03;4.72;;;27.80;62.20;;;;;;10486925;28;20131;-39
2023/06/24 12:00:46;;;;;;;5.60;3.28;;;27.10;64.50;;;;;;10484242;28;20490;-40
2023/06/24 12:05:50;;;;;;;9.82;4.75;;;27.80;62.80;;;;;;10491862;28;20048;-36
2023/06/24 12:10:52;;;;;;;4.10;2.90;;;28.40;60.40;;;;;;10490090;28;20053;-38
2023/06/24 12:15:54;;;;;;;11.27;7.47;;;28.90;59.20;;;;;;10488444;28;20131;-39
2023/06/24 12:20:57;;;;;;;8.68;6.63;;;28.20;60.80;;;;;;10495953;28;20109;-37
2023/06/24 12:25:59;;;;;;;13.02;7.60;;;27.80;63.20;;;;;;10481819;28;20131;-32
2023/06/24 12:31:01;;;;;;;9.85;4.47;;;28.00;62.80;;;;;;10495321;28;20102;-34
2023/06/24 12:36:05;;;;;;;7.00;5.07;;;28.30;62.10;;;;;;10488094;28;20151;-32
2023/06/24 12:41:09;;;;;;;7.95;4.85;;;28.00;62.50;;;;;;10493181;28;20068;-37
2023/06/24 12:46:10;;;;;;;9.00;6.85;;;28.30;61.80;;;;;;10494201;28;20083;-33
2023/06/24 12:51:13;;;;;;;7.45;4.78;;;28.20;61.90;;;;;;10495267;28;20143;-34
2023/06/24 12:56:15;;;;;;;9.07;6.88;;;28.20;61.80;;;;;;10479275;28;20685;-32
2023/06/24 13:01:17;;;;;;;7.57;4.97;;;28.00;63.70;;;;;;10489769;28;20050;-32
2023/06/24 13:06:21;;;;;;;4.60;3.45;;;29.30;59.40;;;;;;10484100;28;20048;-32
2023/06/24 13:11:22;;;;;;;8.23;5.88;;;29.20;59.80;;;;;;10488286;28;20072;-33
2023/06/24 13:16:24;;;;;;;5.63;4.18;;;29.50;58.40;;;;;;10473811;28;20149;-31
2023/06/24 13:21:27;;;;;;;6.95;4.43;;;30.20;57.20;;;;;;10485632;28;20048;-34
2023/06/24 13:26:29;;;;;;;11.15;7.95;;;29.80;59.10;;;;;;10477555;28;20108;-32
2023/06/24 13:31:31;;;;;;;14.63;10.35;;;29.20;58.90;;;;;;10481504;28;20048;-40
2023/06/24 13:36:36;;;;;;;11.65;8.75;;;29.00;60.60;;;;;;10485251;28;20087;-35
2023/06/24 13:41:38;;;;;;;14.27;10.15;;;28.80;62.20;;;;;;10484293;28;20128;-34
2023/06/24 13:46:40;;;;;;;7.30;5.60;;;28.40;64.30;;;;;;10484402;28;20558;-30
2023/06/24 13:51:43;;;;;;;12.20;8.10;;;30.10;63.10;;;;;;10478702;28;20758;-31
2023/06/24 13:56:45;;;;;;;8.30;6.38;;;29.50;64.40;;;;;;10485232;28;20114;-33
2023/06/24 14:01:47;;;;;;;15.63;7.72;;;30.60;60.10;;;;;;10479384;28;20131;-38
2023/06/24 14:06:51;;;;;;;9.48;5.80;;;29.90;61.70;;;;;;10503109;28;20094;-31
2023/06/24 14:11:52;;;;;;;10.10;8.27;;;30.10;63.00;;;;;;10489967;28;20135;-33
2023/06/24 14:16:54;;;;;;;5.85;4.38;;;29.90;60.80;;;;;;10490558;28;20480;-32
2023/06/24 14:21:58;;;;;;;11.48;7.90;;;30.20;65.30;;;;;;10486422;28;20041;-31
2023/06/24 14:27:00;;;;;;;6.55;4.90;;;29.20;61.60;;;;;;10495071;28;20041;-33
2023/06/24 14:32:02;;;;;;;9.55;7.57;;;30.10;67.90;;;;;;10490807;28;20097;-32
2023/06/24 14:37:06;;;;;;;17.67;13.68;;;30.80;67.50;;;;;;10479297;28;20083;-31
2023/06/24 14:42:08;;;;;;;6.93;6.22;;;30.30;56.90;;;;;;10489373;28;20068;-31
2023/06/24 14:47:10;;;;;;;4.97;4.47;;;31.20;64.50;;;;;;10476254;28;20078;-32
2023/06/24 14:52:14;;;;;;;5.10;4.22;;;31.60;66.10;;;;;;10480510;28;20040;-33
2023/06/24 14:57:16;;;;;;;15.07;9.82;;;32.10;61.60;;;;;;10485519;28;20132;-35
2023/06/24 15:02:18;;;;;;;7.15;5.93;;;32.50;58.20;;;;;;10488344;28;20047;-33
2023/06/24 15:07:21;;;;;;;3.42;2.92;;;31.10;57.60;;;;;;10483530;28;20113;-38
2023/06/24 15:12:23;;;;;;;9.88;8.00;;;32.50;59.40;;;;;;10467116;28;20223;-32
2023/06/24 15:17:25;;;;;;;8.48;5.68;;;32.10;59.00;;;;;;10479052;28;20056;-34
2023/06/24 15:22:28;;;;;;;10.38;7.45;;;32.90;57.90;;;;;;10482187;28;20080;-31
2023/06/24 15:27:30;;;;;;;11.75;8.52;;;33.40;55.10;;;;;;10487464;28;20048;-34
2023/06/24 15:32:32;;;;;;;3.50;3.20;;;32.30;53.70;;;;;;10481274;28;20072;-38
2023/06/24 15:37:35;;;;;;;4.95;4.30;;;33.00;57.50;;;;;;10484236;28;20683;-31
2023/06/24 15:42:37;;;;;;;8.25;5.63;;;33.40;56.20;;;;;;10481568;28;20040;-31
2023/06/24 15:47:39;;;;;;;5.70;4.70;;;33.80;57.30;;;;;;10475903;28;20465;-32
2023/06/24 15:52:42;;;;;;;3.20;2.85;;;33.80;57.20;;;;;;10482646;28;20146;-33
2023/06/24 15:57:44;;;;;;;6.20;3.60;;;33.90;56.40;;;;;;10491048;28;20056;-32
2023/06/24 16:02:46;;;;;;;4.22;3.70;;;34.20;57.10;;;;;;10465811;28;20130;-29
2023/06/24 16:07:49;;;;;;;3.67;2.92;;;34.30;58.80;;;;;;10470334;28;20044;-32
2023/06/24 16:12:51;;;;;;;4.18;2.92;;;34.50;56.70;;;;;;10483040;28;20177;-36
2023/06/24 16:17:53;;;;;;;4.00;3.17;;;34.60;59.00;;;;;;10476786;28;20145;-34
2023/06/24 16:22:56;;;;;;;3.25;2.90;;;34.70;57.40;;;;;;10492045;28;20697;-34
2023/06/24 16:27:58;;;;;;;3.45;2.75;;;35.30;55.70;;;;;;10485815;28;20132;-36
2023/06/24 16:33:00;;;;;;;7.75;5.10;;;35.00;57.20;;;;;;10487773;28;20206;-33
2023/06/24 16:38:04;;;;;;;2.95;2.65;;;35.00;53.60;;;;;;10475493;28;20088;-33
2023/06/24 16:43:06;;;;;;;2.78;2.58;;;35.10;56.50;;;;;;10489234;28;20068;-32
2023/06/24 16:48:07;;;;;;;4.28;3.13;;;35.40;55.20;;;;;;10487263;28;20147;-32
2023/06/24 16:53:11;;;;;;;2.75;2.55;;;35.70;56.50;;;;;;10498240;28;20135;-32
2023/06/24 16:58:13;;;;;;;4.55;3.35;;;35.70;62.10;;;;;;10491545;28;20056;-32
2023/06/24 17:03:15;;;;;;;5.90;3.67;;;36.40;59.50;;;;;;10487435;28;20432;-33
2023/06/24 17:08:18;;;;;;;3.30;3.00;;;36.80;59.80;;;;;;10486193;28;20612;-31
2023/06/24 17:13:20;;;;;;;2.67;2.40;;;36.50;59.30;;;;;;10490927;28;20566;-36
2023/06/24 17:18:22;;;;;;;3.72;2.65;;;36.10;56.30;;;;;;10488218;28;20456;-38
2023/06/24 17:23:26;;;;;;;3.22;2.33;;;36.60;56.20;;;;;;10484192;28;20068;-34
2023/06/24 17:28:28;;;;;;;2.92;2.35;;;35.90;54.90;;;;;;10487361;28;20072;-32
2023/06/24 17:33:30;;;;;;;2.25;2.05;;;36.00;56.30;;;;;;10481687;28;20049;-33
2023/06/24 17:38:33;;;;;;;2.97;2.42;;;36.10;55.90;;;;;;10489247;28;20094;-32
2023/06/24 17:43:35;;;;;;;2.33;2.13;;;36.50;56.90;;;;;;10489402;28;20048;-33
2023/06/24 17:48:37;;;;;;;3.03;2.40;;;36.40;54.60;;;;;;10488448;28;20489;-32
2023/06/24 17:53:40;;;;;;;3.03;2.50;;;36.60;56.30;;;;;;10486682;28;20440;-32
2023/06/24 17:58:42;;;;;;;1.80;1.70;;;37.10;51.50;;;;;;10485620;28;20531;-35
2023/06/24 18:03:46;;;;;;;2.25;2.05;;;36.60;54.50;;;;;;10478169;28;20465;-35
2023/06/24 18:08:49;;;;;;;2.55;1.83;;;37.20;55.30;;;;;;10484462;28;20045;-33
2023/06/24 18:13:51;;;;;;;4.93;3.50;;;36.60;54.50;;;;;;10495951;28;20049;-32
2023/06/24 18:18:53;;;;;;;2.58;1.67;;;37.10;51.30;;;;;;10489101;28;20059;-32
2023/06/24 18:23:56;;;;;;;2.05;1.70;;;36.80;52.50;;;;;;10485330;28;20139;-35
2023/06/24 18:28:58;;;;;;;3.42;1.67;;;36.70;52.20;;;;;;10481357;28;20068;-33
2023/06/24 18:34:00;;;;;;;2.53;1.63;;;36.60;52.10;;;;;;10484975;28;20544;-33
2023/06/24 18:39:03;;;;;;;1.67;1.50;;;36.30;52.40;;;;;;10483369;28;20040;-31
2023/06/24 18:44:07;;;;;;;1.77;1.50;;;36.30;52.80;;;;;;10479255;28;20627;-33
2023/06/24 18:49:08;;;;;;;2.08;1.70;;;36.30;53.10;;;;;;10477218;28;20135;-34
2023/06/24 18:54:12;;;;;;;3.17;1.75;;;36.20;53.10;;;;;;10485041;28;20046;-32
2023/06/24 18:59:15;;;;;;;1.80;1.70;;;36.20;53.00;;;;;;10479634;28;20465;-33
2023/06/24 19:04:16;;;;;;;2.63;2.10;;;36.20;52.80;;;;;;10480558;28;20085;-31
2023/06/24 19:09:19;;;;;;;2.50;1.83;;;36.00;52.20;;;;;;10484364;28;20131;-32
2023/06/24 19:14:22;;;;;;;3.88;1.60;;;35.90;51.90;;;;;;10483909;28;20117;-33
2023/06/24 19:19:23;;;;;;;5.60;1.63;;;35.80;52.00;;;;;;10478776;28;20052;-35
2023/06/24 19:24:26;;;;;;;4.68;2.20;;;35.70;52.00;;;;;;10488466;28;20398;-34
2023/06/24 19:29:28;;;;;;;4.53;1.85;;;35.70;52.60;;;;;;10479644;28;20079;-35
2023/06/24 19:34:30;;;;;;;6.97;2.45;;;35.50;52.10;;;;;;10478198;28;20159;-37
2023/06/24 19:39:33;;;;;;;6.05;2.00;;;35.40;52.10;;;;;;10478874;28;20186;-35
2023/06/24 19:44:35;;;;;;;12.23;2.70;;;35.10;52.00;;;;;;10466985;28;20048;-35
2023/06/24 19:49:48;;;;;;;13.32;3.35;;;35.00;52.10;;;;;;10482819;28;20131;-32
2023/06/24 19:54:52;;;;;;;11.60;3.60;;;34.80;52.00;;;;;;10485610;28;20072;-34
2023/06/24 19:59:54;;;;;;;9.45;2.92;;;34.60;52.00;;;;;;10488595;28;20131;-37
2023/06/24 20:04:56;;;;;;;9.85;2.97;;;34.40;52.00;;;;;;10495956;28;20101;-33
2023/06/24 20:09:59;;;;;;;8.93;2.75;;;34.30;52.00;;;;;;10489169;28;20804;-32
2023/06/24 20:15:01;;;;;;;7.20;2.30;;;34.20;51.90;;;;;;10493924;28;20052;-34
2023/06/24 20:20:04;;;;;;;4.43;2.20;;;34.00;52.00;;;;;;10468983;28;20581;-39
2023/06/24 20:25:07;;;;;;;6.25;2.47;;;34.00;52.00;;;;;;10484283;28;20605;-35
2023/06/24 20:30:10;;;;;;;8.15;2.28;;;33.70;52.00;;;;;;10491392;28;20056;-35
2023/06/24 20:35:14;;;;;;;7.82;2.88;;;33.70;51.80;;;;;;10476575;28;20084;-34
2023/06/24 20:40:17;;;;;;;9.18;3.53;;;33.70;51.90;;;;;;10480164;28;20048;-38
2023/06/24 20:45:19;;;;;;;7.55;2.50;;;33.50;51.90;;;;;;10483721;28;20131;-35
2023/06/24 20:50:21;;;;;;;13.52;3.03;;;33.40;52.60;;;;;;10485066;28;20045;-32
2023/06/24 20:55:24;;;;;;;5.35;2.75;;;33.30;51.90;;;;;;10484879;28;20140;-34
2023/06/24 21:00:26;;;;;;;6.25;2.35;;;33.20;52.10;;;;;;10491939;28;20095;-33
2023/06/24 21:05:28;;;;;;;4.95;2.70;;;33.10;52.30;;;;;;10486914;28;20555;-31
2023/06/24 21:10:31;;;;;;;3.38;2.38;;;32.90;52.20;;;;;;10478401;28;20374;-34
2023/06/24 21:15:33;;;;;;;3.03;2.00;;;32.90;52.20;;;;;;10482673;28;20106;-35
2023/06/24 21:20:35;;;;;;;9.27;2.10;;;32.80;52.00;;;;;;10474279;28;20081;-31
2023/06/24 21:25:38;;;;;;;3.17;1.88;;;32.80;52.40;;;;;;10476140;28;20075;-32
2023/06/24 21:30:41;;;;;;;4.15;1.80;;;32.70;52.40;;;;;;10488997;28;20044;-30
2023/06/24 21:35:42;;;;;;;3.53;1.83;;;32.70;52.60;;;;;;10483867;28;20052;-35
2023/06/24 21:40:46;;;;;;;2.97;1.83;;;32.60;53.10;;;;;;10490377;28;20121;-29
2023/06/24 21:45:47;;;;;;;2.72;1.70;;;32.50;52.70;;;;;;10466607;28;20076;-35
2023/06/24 21:50:49;;;;;;;2.83;1.80;;;32.50;52.70;;;;;;10483687;28;20132;-36
2023/06/24 21:55:52;;;;;;;3.10;2.03;;;32.40;52.80;;;;;;10488618;28;20114;-37
2023/06/24 22:00:54;;;;;;;2.97;1.83;;;32.30;52.80;;;;;;10482040;28;20049;-37
2023/06/24 22:05:57;;;;;;;2.90;1.95;;;32.30;52.90;;;;;;10472915;28;20781;-31
2023/06/24 22:11:00;;;;;;;2.25;2.05;;;32.20;52.90;;;;;;10482103;28;20091;-34
2023/06/24 22:16:02;;;;;;;3.30;1.88;;;32.10;53.10;;;;;;10481394;28;20489;-33
2023/06/24 22:21:04;;;;;;;2.53;2.33;;;32.00;53.10;;;;;;10479099;28;20059;-32
2023/06/24 22:26:07;;;;;;;2.97;2.25;;;32.00;53.30;;;;;;10483961;28;20117;-31
2023/06/24 22:31:09;;;;;;;4.97;2.05;;;31.90;53.20;;;;;;10485332;28;20125;-34
2023/06/24 22:36:11;;;;;;;3.10;2.50;;;31.80;53.20;;;;;;10488043;28;20865;-34
2023/06/24 22:41:14;;;;;;;2.40;2.20;;;31.80;53.40;;;;;;10494526;28;20131;-31
2023/06/24 22:46:16;;;;;;;3.30;2.40;;;31.80;53.30;;;;;;10465439;28;20068;-34
2023/06/24 22:51:18;;;;;;;3.05;2.17;;;31.70;53.40;;;;;;10499693;28;20186;-36
2023/06/24 22:56:21;;;;;;;3.13;2.60;;;31.60;53.40;;;;;;10484832;28;20135;-32
2023/06/24 23:01:23;;;;;;;3.28;2.88;;;31.50;53.60;;;;;;10468417;28;20068;-35
2023/06/24 23:06:25;;;;;;;4.53;2.95;;;31.50;53.50;;;;;;10470975;28;20408;-32
2023/06/24 23:11:29;;;;;;;3.72;2.85;;;31.40;53.50;;;;;;10478547;28;20057;-34
2023/06/24 23:16:31;;;;;;;5.70;3.58;;;31.40;53.40;;;;;;10475229;28;20581;-31
2023/06/24 23:21:34;;;;;;;4.43;3.47;;;31.40;53.40;;;;;;10482014;28;20132;-34
2023/06/24 23:26:42;;;;;;;5.10;3.42;;;31.30;53.30;;;;;;10473636;28;20068;-34
2023/06/24 23:31:44;;;;;;;3.80;3.05;;;31.20;53.30;;;;;;10478773;28;20107;-37
2023/06/24 23:36:47;;;;;;;4.55;3.88;;;31.10;53.50;;;;;;10482446;28;20057;-33
2023/06/24 23:41:51;;;;;;;5.22;3.53;;;31.10;53.40;;;;;;10475104;28;20137;-38
2023/06/24 23:46:53;;;;;;;3.85;3.15;;;31.00;53.40;;;;;;10473549;28;20076;-31
2023/06/24 23:51:55;;;;;;;3.80;3.35;;;31.00;53.40;;;;;;10475477;28;20131;-34
2023/06/24 23:56:58;;;;;;;4.20;3.80;;;30.90;54.10;;;;;;10465550;28;20091;-34
